createdAt,value
2019-05-30T00:00:39.219Z,2.15
2019-05-30T00:03:12.999Z,2.50
2019-05-30T00:05:44.030Z,3.30
2019-05-30T00:08:15.036Z,2.62
2019-05-30T00:10:46.076Z,2.80
2019-05-30T00:13:17.303Z,3.22
2019-05-30T00:15:48.317Z,2.65
2019-05-30T00:18:19.280Z,2.47
2019-05-30T00:20:50.281Z,2.75
2019-05-30T00:23:21.187Z,2.95
2019-05-30T00:25:52.227Z,3.27
2019-05-30T00:28:23.304Z,2.75
2019-05-30T00:30:54.371Z,3.25
2019-05-30T00:33:25.452Z,3.22
2019-05-30T00:35:57.592Z,3.60
2019-05-30T00:38:28.927Z,3.80
2019-05-30T00:41:00.070Z,2.85
2019-05-30T00:43:31.194Z,3.20
2019-05-30T00:46:02.498Z,2.98
2019-05-30T00:48:33.450Z,3.12
2019-05-30T00:51:04.709Z,3.37
2019-05-30T00:56:06.964Z,3.60
2019-05-30T00:58:38.050Z,2.98
2019-05-30T01:01:09.063Z,3.17
2019-05-30T01:03:39.973Z,3.10
2019-05-30T01:06:11.094Z,3.15
2019-05-30T01:08:42.007Z,3.00
2019-05-30T01:11:13.058Z,3.37
2019-05-30T01:13:44.155Z,3.77
2019-05-30T01:16:15.307Z,3.22
2019-05-30T01:18:46.542Z,3.40
2019-05-30T01:21:17.717Z,3.15
2019-05-30T01:23:48.874Z,3.62
2019-05-30T01:26:20.032Z,3.22
2019-05-30T01:28:51.090Z,3.47
2019-05-30T01:31:22.125Z,3.70
2019-05-30T01:33:53.237Z,3.65
2019-05-30T01:36:24.208Z,3.22
2019-05-30T01:38:55.114Z,2.85
2019-05-30T01:41:26.055Z,3.00
2019-05-30T01:43:57.735Z,3.02
2019-05-30T01:46:28.916Z,3.02
2019-05-30T01:49:00.231Z,3.20
2019-05-30T01:54:02.574Z,2.55
2019-05-30T01:59:04.837Z,3.30
2019-05-30T02:04:07.347Z,3.08
2019-05-30T02:06:38.507Z,2.63
2019-05-30T02:09:10.800Z,3.00
2019-05-30T02:11:42.475Z,2.70
2019-05-30T02:14:13.630Z,2.67
2019-05-30T02:16:44.726Z,3.05
2019-05-30T02:19:15.768Z,3.02
2019-05-30T02:21:46.759Z,2.87
2019-05-30T02:24:17.844Z,2.83
2019-05-30T02:26:48.780Z,3.22
2019-05-30T02:29:19.874Z,3.15
2019-05-30T02:31:50.802Z,2.77
2019-05-30T02:34:21.959Z,2.70
2019-05-30T02:36:53.100Z,2.83
2019-05-30T02:39:24.133Z,2.65
2019-05-30T02:41:55.438Z,3.22
2019-05-30T02:46:57.350Z,2.90
2019-05-30T02:49:28.406Z,2.87
2019-05-30T02:51:59.406Z,3.40
2019-05-30T02:54:30.416Z,3.02
2019-05-30T02:57:03.415Z,2.92
2019-05-30T02:59:34.495Z,3.27
2019-05-30T03:02:09.943Z,2.95
2019-05-30T03:04:38.430Z,3.40
2019-05-30T03:07:11.323Z,3.58
2019-05-30T03:09:42.853Z,3.15
2019-05-30T03:12:14.079Z,3.30
2019-05-30T03:14:45.250Z,3.40
2019-05-30T03:17:16.366Z,3.30
2019-05-30T03:19:47.496Z,3.02
2019-05-30T03:22:18.535Z,3.02
2019-05-30T03:24:49.622Z,3.00
2019-05-30T03:27:20.719Z,3.35
2019-05-30T03:29:51.833Z,2.60
2019-05-30T03:33:01.833Z,3.05
2019-05-30T03:34:55.963Z,3.47
2019-05-30T03:37:30.038Z,3.83
2019-05-30T03:40:00.130Z,2.77
2019-05-30T03:42:31.339Z,3.00
2019-05-30T03:45:06.355Z,3.08
2019-05-30T03:47:42.488Z,4.92
2019-05-30T03:50:17.406Z,3.27
2019-05-30T03:52:47.936Z,3.20
2019-05-30T03:55:20.035Z,3.40
2019-05-30T03:58:08.049Z,3.17
2019-05-30T04:00:43.377Z,3.10
2019-05-30T04:03:36.066Z,2.80
2019-05-30T04:06:16.776Z,2.85
2019-05-30T04:08:51.188Z,2.15
2019-05-30T04:11:28.904Z,2.20
2019-05-30T04:14:02.765Z,2.72
2019-05-30T04:16:33.779Z,3.00
2019-05-30T04:19:04.710Z,2.65
2019-05-30T04:21:35.703Z,2.90
2019-05-30T04:24:07.517Z,2.72
2019-05-30T04:26:39.098Z,2.80
2019-05-30T04:29:12.033Z,2.67
2019-05-30T04:31:43.134Z,2.87
2019-05-30T04:34:14.987Z,2.67
2019-05-30T04:36:46.993Z,2.47
2019-05-30T04:39:19.159Z,2.35
2019-05-30T04:41:50.279Z,2.55
2019-05-30T04:44:21.391Z,2.60
2019-05-30T04:46:52.405Z,2.58
2019-05-30T04:49:23.424Z,2.25
2019-05-30T04:51:54.425Z,2.70
2019-05-30T04:54:25.391Z,2.67
2019-05-30T04:56:56.303Z,2.92
2019-05-30T04:59:27.285Z,2.22
2019-05-30T05:01:58.315Z,2.98
2019-05-30T05:04:29.312Z,2.10
2019-05-30T05:07:00.345Z,2.10
2019-05-30T05:09:31.553Z,2.05
2019-05-30T05:12:02.913Z,2.27
2019-05-30T05:17:04.952Z,2.00
2019-05-30T05:19:35.929Z,2.12
2019-05-30T05:22:06.965Z,1.77
2019-05-30T05:24:37.989Z,1.80
2019-05-30T05:27:09.936Z,2.05
2019-05-30T05:29:41.219Z,1.70
2019-05-30T05:32:12.295Z,1.80
2019-05-30T05:34:45.207Z,2.00
2019-05-30T05:37:17.031Z,1.77
2019-05-30T05:39:48.170Z,1.42
2019-05-30T05:42:20.241Z,1.57
2019-05-30T05:44:51.347Z,1.55
2019-05-30T05:47:22.860Z,2.00
2019-05-30T05:49:53.961Z,1.50
2019-05-30T05:54:56.036Z,1.27
2019-05-30T05:57:27.081Z,1.80
2019-05-30T05:59:58.009Z,1.45
2019-05-30T06:02:29.034Z,2.00
2019-05-30T06:05:00.145Z,1.70
2019-05-30T06:07:31.231Z,1.80
2019-05-30T06:10:04.062Z,1.98
2019-05-30T06:12:35.092Z,2.00
2019-05-30T06:15:06.444Z,1.85
2019-05-30T06:20:08.935Z,1.50
2019-05-30T06:22:40.025Z,2.25
2019-05-30T06:25:11.267Z,2.30
2019-05-30T06:30:14.166Z,1.90
2019-05-30T06:32:45.430Z,2.10
2019-05-30T06:37:47.543Z,1.62
2019-05-30T06:40:21.360Z,2.20
2019-05-30T06:42:52.759Z,1.60
2019-05-30T06:47:56.481Z,2.00
2019-05-30T06:50:29.038Z,1.82
2019-05-30T06:53:00.227Z,1.95
2019-05-30T06:55:31.497Z,1.77
2019-05-30T06:58:03.022Z,1.77
2019-05-30T07:00:34.417Z,1.82
2019-05-30T07:03:05.620Z,1.80
2019-05-30T07:05:37.461Z,1.72
2019-05-30T07:08:08.817Z,2.40
2019-05-30T07:10:39.853Z,1.90
2019-05-30T07:13:10.772Z,2.20
2019-05-30T07:15:41.807Z,1.80
2019-05-30T07:18:12.909Z,1.50
2019-05-30T07:20:43.785Z,1.95
2019-05-30T07:23:14.829Z,2.02
2019-05-30T07:25:45.747Z,2.05
2019-05-30T07:28:16.798Z,1.80
2019-05-30T07:30:47.704Z,2.35
2019-05-30T07:33:18.746Z,1.85
2019-05-30T07:35:49.757Z,1.70
2019-05-30T07:38:20.814Z,1.85
2019-05-30T07:40:51.737Z,2.00
2019-05-30T07:43:27.912Z,1.70
2019-05-30T07:45:58.728Z,1.87
2019-05-30T07:48:30.174Z,1.98
2019-05-30T07:51:01.246Z,1.70
2019-05-30T07:53:32.841Z,1.92
2019-05-30T07:56:04.593Z,1.90
2019-05-30T07:58:35.739Z,1.85
2019-05-30T08:03:38.884Z,1.85
2019-05-30T08:06:09.989Z,2.45
2019-05-30T08:08:41.048Z,1.50
2019-05-30T08:11:12.158Z,1.75
2019-05-30T08:13:43.303Z,2.05
2019-05-30T08:18:45.182Z,1.67
2019-05-30T08:21:16.176Z,1.77
2019-05-30T08:23:47.146Z,2.05
2019-05-30T08:26:18.487Z,1.55
2019-05-30T08:28:49.594Z,1.80
2019-05-30T08:31:20.639Z,2.00
2019-05-30T08:33:51.616Z,1.80
2019-05-30T08:36:22.659Z,1.70
2019-05-30T08:38:53.701Z,1.82
2019-05-30T08:43:55.586Z,1.67
2019-05-30T08:46:26.477Z,1.67
2019-05-30T08:48:57.620Z,1.77
2019-05-30T08:51:30.104Z,2.00
2019-05-30T08:54:01.310Z,2.00
2019-05-30T08:56:33.007Z,1.85
2019-05-30T08:59:04.223Z,2.40
2019-05-30T09:04:13.900Z,2.00
2019-05-30T09:06:46.090Z,2.10
2019-05-30T09:09:17.209Z,2.00
2019-05-30T09:11:48.129Z,2.05
2019-05-30T09:14:19.157Z,1.77
2019-05-30T09:16:51.134Z,2.00
2019-05-30T09:19:22.462Z,1.98
2019-05-30T09:21:53.459Z,1.95
2019-05-30T09:24:24.490Z,1.85
2019-05-30T09:26:55.595Z,2.30
2019-05-30T09:31:57.607Z,2.25
2019-05-30T09:36:59.809Z,1.85
2019-05-30T09:39:30.853Z,2.17
2019-05-30T09:44:34.303Z,1.90
2019-05-30T09:49:36.521Z,1.60
2019-05-30T09:52:07.589Z,1.82
2019-05-30T09:54:38.832Z,1.52
2019-05-30T09:57:09.907Z,1.60
2019-05-30T09:59:41.595Z,1.70
2019-05-30T10:02:14.019Z,1.60
2019-05-30T10:07:17.861Z,1.77
2019-05-30T10:09:49.096Z,1.40
2019-05-30T10:14:51.358Z,1.87
2019-05-30T10:17:23.821Z,1.67
2019-05-30T10:22:25.771Z,2.00
2019-05-30T10:24:57.228Z,1.90
2019-05-30T10:27:28.351Z,2.37
2019-05-30T10:29:59.287Z,1.98
2019-05-30T10:32:33.749Z,1.77
2019-05-30T10:35:05.621Z,2.25
2019-05-30T10:37:36.526Z,2.00
2019-05-30T10:40:10.225Z,2.25
2019-05-30T10:42:41.352Z,2.40
2019-05-30T10:47:43.579Z,2.42
2019-05-30T10:52:47.222Z,2.30
2019-05-30T10:55:19.033Z,2.40
2019-05-30T10:57:51.606Z,2.77
2019-05-30T11:00:26.460Z,2.77
2019-05-30T11:02:57.415Z,2.58
2019-05-30T11:05:28.569Z,2.20
2019-05-30T11:08:09.156Z,2.52
2019-05-30T11:10:41.195Z,1.47
2019-05-30T11:13:14.858Z,3.12
2019-05-30T11:15:46.888Z,2.20
2019-05-30T11:18:18.841Z,2.50
2019-05-30T11:20:49.976Z,2.02
2019-05-30T11:23:21.230Z,2.10
2019-05-30T11:28:24.895Z,2.20
2019-05-30T11:30:56.859Z,2.33
2019-05-30T11:33:27.877Z,2.30
2019-05-30T11:35:59.256Z,2.30
2019-05-30T11:38:30.265Z,2.25
2019-05-30T11:41:01.316Z,2.20
2019-05-30T11:43:32.453Z,2.00
2019-05-30T11:48:34.559Z,2.67
2019-05-30T11:51:05.726Z,2.60
2019-05-30T11:56:07.670Z,2.40
2019-05-30T11:58:38.672Z,2.35
2019-05-30T12:01:09.724Z,2.35
2019-05-30T12:03:40.681Z,2.27
2019-05-30T12:06:11.846Z,2.47
2019-05-30T12:11:13.751Z,2.17
2019-05-30T12:13:44.664Z,2.75
2019-05-30T12:16:15.705Z,2.10
2019-05-30T12:18:46.815Z,2.00
2019-05-30T12:23:50.126Z,1.90
2019-05-30T12:28:52.170Z,2.20
2019-05-30T12:31:23.271Z,2.20
2019-05-30T12:36:25.412Z,2.42
2019-05-30T12:41:27.618Z,2.62
2019-05-30T12:43:59.155Z,2.27
2019-05-30T12:46:30.501Z,2.40
2019-05-30T12:54:03.975Z,2.65
2019-05-30T12:56:34.972Z,2.80
2019-05-30T12:59:07.122Z,2.55
2019-05-30T13:01:38.444Z,2.30
2019-05-30T13:06:40.458Z,2.50
2019-05-30T13:11:42.285Z,2.27
2019-05-30T13:14:13.446Z,2.45
2019-05-30T13:19:15.543Z,2.35
2019-05-30T13:24:22.123Z,2.60
2019-05-30T13:27:06.895Z,2.60
2019-05-30T13:30:08.453Z,3.22
2019-05-30T13:32:39.561Z,2.95
2019-05-30T13:37:45.131Z,2.92
2019-05-30T13:40:28.751Z,2.12
2019-05-30T13:43:01.800Z,2.95
2019-05-30T13:45:38.212Z,2.98
2019-05-30T13:48:11.416Z,3.17
2019-05-30T13:50:46.169Z,3.35
2019-05-30T13:53:17.231Z,2.85
2019-05-30T13:58:25.380Z,3.05
2019-05-30T14:03:31.214Z,3.10
2019-05-30T14:08:42.037Z,3.10
2019-05-30T14:11:18.900Z,3.27
2019-05-30T14:13:49.816Z,3.20
2019-05-30T14:16:27.920Z,2.80
2019-05-30T14:18:58.954Z,3.10
2019-05-30T14:24:01.359Z,3.80
2019-05-30T14:26:32.295Z,3.67
2019-05-30T14:31:35.003Z,3.37
2019-05-30T14:36:37.136Z,3.17
2019-05-30T14:41:40.127Z,3.67
2019-05-30T14:46:42.143Z,3.52
2019-05-30T14:51:45.420Z,3.72
2019-05-30T14:56:48.621Z,4.30
2019-05-30T15:01:50.653Z,3.75
2019-05-30T15:07:01.640Z,3.87
2019-05-30T15:09:32.654Z,3.60
2019-05-30T15:14:35.803Z,3.37
2019-05-30T15:17:07.987Z,3.70
2019-05-30T15:19:39.005Z,3.72
2019-05-30T15:22:14.669Z,4.28
2019-05-30T15:24:43.252Z,5.03
2019-05-30T15:27:20.554Z,5.08
2019-05-30T15:29:49.960Z,5.28
2019-05-30T15:32:21.198Z,4.65
2019-05-30T15:34:52.128Z,5.00
2019-05-30T15:37:23.376Z,5.40
2019-05-30T15:39:54.514Z,5.45
2019-05-30T15:45:08.076Z,5.10
2019-05-30T15:47:40.927Z,5.03
2019-05-30T15:50:17.114Z,5.95
2019-05-30T15:52:50.215Z,5.00
2019-05-30T15:55:23.265Z,5.85
2019-05-30T15:57:54.195Z,6.00
2019-05-30T16:00:25.707Z,5.90
2019-05-30T16:02:56.640Z,6.33
2019-05-30T16:05:27.666Z,5.85
2019-05-30T16:07:58.822Z,6.08
2019-05-30T16:13:00.905Z,5.72
2019-05-30T16:18:03.177Z,5.75
2019-05-30T16:20:34.194Z,7.03
2019-05-30T16:23:05.327Z,6.70
2019-05-30T16:28:07.424Z,7.22
2019-05-30T16:30:38.618Z,7.45
2019-05-30T16:35:40.723Z,7.42
2019-05-30T16:40:43.264Z,7.33
2019-05-30T16:43:14.492Z,7.03
2019-05-30T16:48:16.516Z,6.97
2019-05-30T16:50:47.770Z,7.37
2019-05-30T16:55:51.468Z,7.55
2019-05-30T16:58:23.553Z,8.03
2019-05-30T17:00:54.725Z,8.95
2019-05-30T17:03:26.142Z,9.28
2019-05-30T17:05:57.551Z,8.68
2019-05-30T17:08:28.802Z,9.05
2019-05-30T17:13:31.383Z,9.70
2019-05-30T17:16:02.844Z,9.50
2019-05-30T17:18:33.900Z,9.98
2019-05-30T17:21:04.938Z,8.95
2019-05-30T17:23:36.090Z,9.63
2019-05-30T17:28:38.162Z,10.18
2019-05-30T17:33:40.200Z,9.23
2019-05-30T17:36:11.098Z,9.73
2019-05-30T17:38:42.134Z,9.48
2019-05-30T17:41:13.036Z,10.38
2019-05-30T17:43:44.083Z,10.05
2019-05-30T17:46:15.042Z,10.20
2019-05-30T17:48:46.094Z,12.70
2019-05-30T17:51:17.042Z,11.38
2019-05-30T17:53:48.070Z,11.08
2019-05-30T17:56:19.876Z,11.93
2019-05-30T17:58:50.956Z,11.50
2019-05-30T18:01:22.293Z,11.18
2019-05-30T18:03:53.467Z,12.07
2019-05-30T18:08:57.198Z,12.03
2019-05-30T18:14:00.180Z,12.03
2019-05-30T18:16:31.480Z,12.28
2019-05-30T18:19:03.149Z,12.33
2019-05-30T18:21:34.093Z,13.13
2019-05-30T18:24:05.215Z,13.38
2019-05-30T18:26:36.099Z,12.65
2019-05-30T18:29:07.051Z,13.15
2019-05-30T18:31:37.970Z,13.38
2019-05-30T18:34:08.926Z,13.40
2019-05-30T18:36:39.934Z,13.43
2019-05-30T18:39:10.975Z,12.98
2019-05-30T18:41:41.989Z,12.98
2019-05-30T18:44:13.266Z,12.60
2019-05-30T18:46:44.308Z,12.23
2019-05-30T18:49:15.471Z,12.07
2019-05-30T18:51:46.788Z,12.93
2019-05-30T18:56:48.804Z,12.47
2019-05-30T18:59:19.844Z,13.00
2019-05-30T19:01:50.876Z,13.15
2019-05-30T19:04:22.918Z,11.88
2019-05-30T19:06:54.168Z,12.15
2019-05-30T19:09:25.126Z,13.32
2019-05-30T19:11:56.065Z,11.45
2019-05-30T19:14:29.751Z,13.25
2019-05-30T19:17:00.510Z,12.43
2019-05-30T19:19:31.819Z,12.82
2019-05-30T19:22:03.087Z,13.72
2019-05-30T19:27:05.235Z,14.05
2019-05-30T19:29:37.065Z,13.88
2019-05-30T19:32:08.129Z,13.55
2019-05-30T19:34:39.269Z,14.78
2019-05-30T19:37:10.340Z,13.75
2019-05-30T19:39:41.329Z,14.70
2019-05-30T19:42:12.333Z,14.55
2019-05-30T19:44:43.371Z,14.38
2019-05-30T19:47:14.409Z,15.25
2019-05-30T19:49:45.467Z,14.85
2019-05-30T19:52:16.492Z,15.72
2019-05-30T19:54:47.536Z,16.97
2019-05-30T19:57:18.451Z,16.25
2019-05-30T19:59:49.490Z,16.45
2019-05-30T20:02:20.617Z,16.15
2019-05-30T20:07:22.633Z,18.05
2019-05-30T20:10:01.453Z,17.20
2019-05-30T20:12:27.272Z,18.57
2019-05-30T20:14:58.320Z,17.25
2019-05-30T20:17:30.066Z,18.10
2019-05-30T20:20:01.710Z,17.30
2019-05-30T20:22:35.961Z,19.00
2019-05-30T20:25:08.277Z,18.15
2019-05-30T20:27:39.357Z,19.50
2019-05-30T20:30:11.083Z,19.65
2019-05-30T20:32:43.295Z,20.72
2019-05-30T20:35:14.531Z,19.75
2019-05-30T20:37:45.572Z,21.48
2019-05-30T20:40:16.959Z,20.90
2019-05-30T20:42:47.974Z,21.55
2019-05-30T20:45:19.490Z,21.57
2019-05-30T20:47:50.885Z,22.75
2019-05-30T20:50:22.843Z,21.65
2019-05-30T20:52:53.887Z,22.07
2019-05-30T20:55:24.928Z,22.87
2019-05-30T20:57:55.798Z,22.82
2019-05-30T21:00:38.025Z,20.85
2019-05-30T21:03:10.628Z,21.97
2019-05-30T21:05:42.118Z,21.30
2019-05-30T21:08:14.367Z,21.82
2019-05-30T21:10:47.309Z,21.60
2019-05-30T21:13:18.498Z,21.85
2019-05-30T21:15:49.799Z,20.82
2019-05-30T21:18:21.522Z,21.20
2019-05-30T21:20:52.493Z,20.88
2019-05-30T21:23:23.487Z,21.05
2019-05-30T21:25:54.488Z,20.55
2019-05-30T21:28:25.524Z,20.15
2019-05-30T21:30:56.823Z,20.23
2019-05-30T21:33:27.850Z,21.05
2019-05-30T21:35:58.991Z,20.40
2019-05-30T21:38:30.128Z,19.55
2019-05-30T21:41:01.131Z,21.07
2019-05-30T21:43:32.066Z,20.30
2019-05-30T21:46:03.059Z,19.77
2019-05-30T21:48:33.986Z,20.37
2019-05-30T21:51:05.001Z,20.75
2019-05-30T21:53:36.573Z,19.35
2019-05-30T21:56:07.485Z,19.50
2019-05-30T21:58:38.409Z,19.07
2019-05-30T22:01:24.739Z,19.85
2019-05-30T22:03:55.896Z,19.27
2019-05-30T22:09:02.797Z,19.70
2019-05-30T22:11:31.508Z,19.70
2019-05-30T22:14:02.997Z,18.67
2019-05-30T22:16:33.946Z,19.82
2019-05-30T22:19:05.211Z,19.35
2019-05-30T22:24:07.231Z,19.65
2019-05-30T22:29:09.066Z,19.62
2019-05-30T22:31:40.102Z,20.02
2019-05-30T22:34:17.986Z,19.55
2019-05-30T22:36:49.021Z,19.42
2019-05-30T22:42:08.802Z,19.95
2019-05-30T22:47:10.939Z,20.12
2019-05-30T22:52:13.214Z,19.80
2019-05-30T22:54:45.204Z,19.42
2019-05-30T22:57:21.826Z,19.32
2019-05-30T22:59:51.168Z,20.62
2019-05-30T23:02:29.508Z,21.97
2019-05-30T23:05:00.255Z,21.23
2019-05-30T23:07:33.985Z,20.55
2019-05-30T23:10:07.466Z,21.55
2019-05-30T23:12:38.550Z,22.65
2019-05-30T23:15:12.034Z,20.90
2019-05-30T23:17:42.949Z,20.82
2019-05-30T23:20:16.863Z,21.23
2019-05-30T23:22:48.793Z,21.17
2019-05-30T23:25:21.732Z,21.55
2019-05-30T23:27:55.590Z,22.85
2019-05-30T23:30:29.460Z,22.15
2019-05-30T23:33:00.395Z,21.77
2019-05-30T23:35:31.410Z,21.82
2019-05-30T23:38:02.534Z,22.73
2019-05-30T23:40:33.471Z,23.52
2019-05-30T23:43:04.498Z,22.13
2019-05-30T23:45:40.098Z,22.60
2019-05-30T23:48:12.399Z,23.42
2019-05-30T23:50:45.378Z,23.65
2019-05-30T23:53:19.359Z,23.87
2019-05-30T23:55:52.352Z,24.15
2019-05-30T23:58:23.334Z,23.20
